Time;durP1;ratioP1;P1;durP2;ratioP2;P2;SDS_P1;SDS_P2;PMS_P1;PMS_P2;Temp;Humidity;BMP_temperature;BMP_pressure;BME280_temperature;BME280_humidity;BME280_pressure;Samples;Min_cycle;Max_cycle;Signal;HPM_P1;HPM_P2
2023/10/27 00:00:37;;;;;;;2.55;0.90;;;10.70;86.70;;;;;;5033932;28;20022;-80
2023/10/27 00:03:04;;;;;;;3.58;1.30;;;10.70;86.80;;;;;;5033552;28;20033;-78
2023/10/27 00:05:30;;;;;;;2.25;1.00;;;10.70;86.80;;;;;;5031729;28;20026;-80
2023/10/27 00:07:56;;;;;;;3.20;1.10;;;10.70;86.40;;;;;;5033652;28;20038;-81
2023/10/27 00:10:22;;;;;;;3.72;1.10;;;10.70;86.00;;;;;;5032438;28;20042;-77
2023/10/27 00:12:48;;;;;;;6.47;0.50;;;10.70;86.10;;;;;;5032564;28;20040;-78
2023/10/27 00:15:13;;;;;;;2.53;1.02;;;10.70;86.10;;;;;;5035559;28;20025;-80
2023/10/27 00:17:39;;;;;;;1.20;0.60;;;10.70;86.30;;;;;;5037848;28;20026;-75
2023/10/27 00:20:05;;;;;;;3.28;0.85;;;10.70;86.30;;;;;;5042549;28;20071;-80
2023/10/27 00:22:35;;;;;;;1.35;0.40;;;10.70;85.90;;;;;;5045236;28;20021;-72
2023/10/27 00:25:01;;;;;;;2.15;0.70;;;10.70;85.60;;;;;;5043111;28;20470;-73
2023/10/27 00:27:26;;;;;;;1.83;0.60;;;10.70;85.70;;;;;;5064951;28;20052;-81
2023/10/27 00:29:52;;;;;;;3.83;0.90;;;10.70;85.80;;;;;;5082217;28;20042;-80
2023/10/27 00:32:18;;;;;;;2.33;0.80;;;10.70;85.90;;;;;;5082817;28;20037;-74
2023/10/27 00:34:43;;;;;;;2.53;1.00;;;10.70;86.10;;;;;;5084645;28;20024;-77
2023/10/27 00:37:09;;;;;;;1.92;0.60;;;10.70;86.10;;;;;;5083256;28;20024;-76
2023/10/27 00:39:34;;;;;;;9.40;1.00;;;10.70;86.10;;;;;;5080628;28;20028;-72
2023/10/27 00:41:59;;;;;;;2.22;0.80;;;10.70;86.00;;;;;;5075912;28;20036;-73
2023/10/27 00:44:25;;;;;;;1.40;0.90;;;10.70;86.00;;;;;;5075445;28;20028;-79
2023/10/27 00:46:53;;;;;;;2.40;0.70;;;10.70;86.00;;;;;;5076576;28;20109;-76
2023/10/27 00:49:19;;;;;;;1.75;0.63;;;10.70;86.10;;;;;;5078838;28;20516;-75
2023/10/27 00:51:46;;;;;;;2.95;0.82;;;10.60;86.10;;;;;;5075503;28;20041;-78
2023/10/27 00:54:13;;;;;;;2.40;0.77;;;10.70;86.40;;;;;;5075907;28;20017;-77
2023/10/27 00:56:39;;;;;;;1.98;0.65;;;10.60;86.30;;;;;;5075400;28;20024;-80
2023/10/27 00:59:06;;;;;;;3.13;0.90;;;10.60;86.40;;;;;;5075028;28;20107;-76
2023/10/27 01:01:33;;;;;;;1.98;0.90;;;10.60;86.40;;;;;;5074942;28;20032;-77
2023/10/27 01:03:58;;;;;;;1.98;0.60;;;10.60;86.40;;;;;;5074768;28;20111;-76
2023/10/27 01:06:25;;;;;;;2.33;0.90;;;10.60;86.30;;;;;;5074985;28;20416;-82
2023/10/27 01:08:50;;;;;;;3.17;0.82;;;10.60;86.20;;;;;;5074834;28;20571;-75
2023/10/27 01:11:20;;;;;;;2.13;0.88;;;10.50;86.20;;;;;;5074486;28;20088;-76
2023/10/27 01:13:53;;;;;;;1.88;0.77;;;10.60;86.30;;;;;;5073629;28;20031;-77
2023/10/27 01:16:19;;;;;;;2.45;0.70;;;10.60;86.20;;;;;;5075166;28;20017;-77
2023/10/27 01:18:44;;;;;;;0.95;0.50;;;10.60;86.10;;;;;;5074089;28;20039;-72
2023/10/27 01:21:10;;;;;;;2.35;0.60;;;10.60;86.10;;;;;;5074468;28;20029;-72
2023/10/27 01:23:35;;;;;;;2.88;0.70;;;10.50;85.80;;;;;;5074254;28;20028;-74
2023/10/27 01:26:03;;;;;;;3.95;0.80;;;10.50;85.80;;;;;;5074020;28;20029;-73
2023/10/27 01:28:29;;;;;;;2.78;0.70;;;10.50;85.70;;;;;;5074439;28;20044;-73
2023/10/27 01:30:55;;;;;;;3.63;0.70;;;10.40;86.00;;;;;;5074071;28;20081;-71
2023/10/27 01:33:21;;;;;;;3.80;0.75;;;10.40;85.60;;;;;;5074390;28;20025;-74
2023/10/27 01:35:47;;;;;;;1.35;0.60;;;10.50;85.80;;;;;;5073817;28;20028;-72
2023/10/27 01:38:12;;;;;;;1.95;0.50;;;10.40;85.80;;;;;;5073903;28;20028;-76
2023/10/27 01:40:38;;;;;;;1.45;0.52;;;10.40;86.00;;;;;;5073671;28;20025;-76
2023/10/27 01:43:03;;;;;;;1.58;0.50;;;10.40;85.80;;;;;;5073731;28;20035;-73
2023/10/27 01:45:29;;;;;;;2.42;0.80;;;10.40;84.90;;;;;;5073516;28;20021;-74
2023/10/27 01:47:54;;;;;;;2.25;0.68;;;10.30;85.20;;;;;;5073671;28;20373;-71
2023/10/27 01:50:20;;;;;;;1.60;0.40;;;10.20;85.50;;;;;;5073568;28;20048;-71
2023/10/27 01:52:45;;;;;;;2.40;0.57;;;10.20;85.80;;;;;;5073290;28;20039;-73
2023/10/27 01:55:11;;;;;;;2.38;0.50;;;10.20;85.90;;;;;;5073409;28;20063;-73
2023/10/27 01:57:37;;;;;;;0.90;0.50;;;10.20;86.00;;;;;;5073495;28;20431;-74
2023/10/27 02:00:03;;;;;;;2.22;0.47;;;10.20;86.20;;;;;;5073282;28;20056;-72
2023/10/27 02:02:28;;;;;;;1.08;0.50;;;10.20;86.20;;;;;;5071972;28;20104;-72
2023/10/27 02:04:54;;;;;;;2.72;0.40;;;10.20;86.20;;;;;;5071810;28;20064;-73
2023/10/27 02:07:23;;;;;;;1.08;0.63;;;10.30;86.20;;;;;;5073288;28;20048;-73
2023/10/27 02:09:49;;;;;;;3.05;0.68;;;10.20;86.00;;;;;;5073578;28;20052;-73
2023/10/27 02:12:15;;;;;;;1.02;0.47;;;10.20;86.00;;;;;;5073438;28;20102;-72
2023/10/27 02:14:40;;;;;;;2.80;0.65;;;10.10;85.50;;;;;;5073128;28;20411;-73
2023/10/27 02:17:06;;;;;;;1.58;0.38;;;10.10;85.50;;;;;;5071838;28;20504;-72
2023/10/27 02:19:32;;;;;;;1.20;0.45;;;10.10;85.40;;;;;;5072195;28;20031;-72
2023/10/27 02:21:57;;;;;;;1.48;0.40;;;10.00;85.00;;;;;;5073691;28;20048;-72
2023/10/27 02:24:23;;;;;;;2.58;0.50;;;10.00;85.30;;;;;;5075571;28;20508;-73
2023/10/27 02:26:48;;;;;;;1.08;0.50;;;10.00;85.30;;;;;;5073134;28;20133;-73
2023/10/27 02:29:14;;;;;;;1.35;0.47;;;10.00;85.40;;;;;;5073026;28;20020;-73
2023/10/27 02:31:40;;;;;;;0.73;0.40;;;10.10;85.50;;;;;;5072797;28;20503;-73
2023/10/27 02:34:06;;;;;;;1.92;0.45;;;10.10;85.40;;;;;;5072723;28;20094;-73
2023/10/27 02:36:32;;;;;;;1.80;0.47;;;10.20;85.30;;;;;;5071826;28;20028;-74
2023/10/27 02:38:57;;;;;;;3.10;0.60;;;10.20;85.40;;;;;;5040035;28;20036;-73
2023/10/27 02:41:23;;;;;;;1.60;0.80;;;10.20;85.00;;;;;;5031511;28;20021;-73
2023/10/27 02:43:48;;;;;;;1.77;0.47;;;10.20;84.80;;;;;;5032531;28;20029;-74
2023/10/27 02:46:14;;;;;;;1.30;0.50;;;10.10;84.70;;;;;;5031318;28;20022;-72
2023/10/27 02:48:41;;;;;;;1.00;0.30;;;10.00;84.40;;;;;;5032716;28;20485;-72
2023/10/27 02:51:08;;;;;;;1.83;0.60;;;9.90;84.40;;;;;;5032394;28;20481;-73
2023/10/27 02:53:34;;;;;;;1.23;0.30;;;9.90;84.70;;;;;;5032360;28;20037;-73
2023/10/27 02:56:09;;;;;;;2.08;0.70;;;9.90;84.90;;;;;;5032564;28;20104;-73
2023/10/27 02:58:36;;;;;;;1.30;0.47;;;9.90;85.10;;;;;;5032407;28;20385;-75
2023/10/27 03:01:09;;;;;;;1.45;0.65;;;9.90;85.20;;;;;;5032518;28;20525;-73
2023/10/27 03:03:37;;;;;;;0.95;0.30;;;10.00;85.30;;;;;;5032422;28;20203;-72
2023/10/27 03:06:03;;;;;;;1.40;0.82;;;10.00;85.30;;;;;;5032427;28;20504;-74
2023/10/27 03:08:31;;;;;;;5.63;3.28;;;10.10;85.50;;;;;;5032662;28;20033;-73
2023/10/27 03:10:56;;;;;;;10.50;6.05;;;10.10;85.40;;;;;;5032325;28;20049;-73
2023/10/27 03:13:22;;;;;;;12.38;7.25;;;10.10;85.50;;;;;;5031180;28;20029;-73
2023/10/27 03:15:47;;;;;;;10.23;5.35;;;10.20;85.40;;;;;;5032310;28;20378;-72
2023/10/27 03:18:13;;;;;;;7.22;3.90;;;10.20;85.30;;;;;;5032254;28;20100;-72
2023/10/27 03:20:38;;;;;;;4.60;2.65;;;10.20;85.20;;;;;;5031283;28;20055;-83
2023/10/27 03:23:04;;;;;;;2.63;1.30;;;10.20;85.20;;;;;;5031178;28;20037;-76
2023/10/27 03:25:30;;;;;;;2.00;1.25;;;10.10;85.20;;;;;;5032787;28;20025;-74
2023/10/27 03:27:55;;;;;;;1.35;0.85;;;10.10;85.20;;;;;;5032120;28;20033;-72
2023/10/27 03:30:22;;;;;;;1.33;0.52;;;10.10;85.30;;;;;;5032073;28;20429;-73
2023/10/27 03:32:48;;;;;;;1.70;0.73;;;10.10;85.30;;;;;;5032068;28;20037;-72
2023/10/27 03:35:14;;;;;;;3.00;2.00;;;10.10;85.70;;;;;;5032146;28;20075;-72
2023/10/27 03:37:40;;;;;;;4.38;2.83;;;10.20;85.80;;;;;;5031985;28;20025;-72
2023/10/27 03:40:06;;;;;;;3.78;2.67;;;10.10;85.70;;;;;;5032096;28;20027;-71
2023/10/27 03:42:31;;;;;;;2.53;1.67;;;10.10;85.70;;;;;;5032150;28;20079;-71
2023/10/27 03:44:57;;;;;;;1.80;1.00;;;10.10;85.80;;;;;;5032056;28;20026;-71
2023/10/27 03:47:23;;;;;;;2.63;0.77;;;10.10;85.90;;;;;;5031834;28;20116;-72
2023/10/27 03:49:48;;;;;;;1.75;0.75;;;10.20;85.70;;;;;;5033984;28;20025;-73
2023/10/27 03:52:14;;;;;;;0.60;0.45;;;10.10;85.60;;;;;;5061746;28;20041;-73
2023/10/27 03:54:39;;;;;;;2.70;0.50;;;10.10;85.60;;;;;;5075624;28;20027;-71
2023/10/27 03:57:06;;;;;;;0.55;0.55;;;10.20;85.60;;;;;;5075474;28;20024;-71
2023/10/27 03:59:32;;;;;;;0.68;0.57;;;10.20;85.50;;;;;;5075347;28;20036;-72
2023/10/27 04:01:57;;;;;;;0.60;0.50;;;10.30;85.50;;;;;;5075378;28;20085;-72
2023/10/27 04:04:23;;;;;;;1.02;0.50;;;10.30;85.30;;;;;;5075248;28;20029;-72
2023/10/27 04:06:48;;;;;;;3.22;0.85;;;10.30;85.10;;;;;;5075431;28;20485;-72
2023/10/27 04:09:14;;;;;;;1.15;0.50;;;10.30;85.10;;;;;;5073908;28;20515;-72
2023/10/27 04:11:39;;;;;;;0.57;0.20;;;10.40;85.00;;;;;;5075072;28;20044;-72
2023/10/27 04:14:05;;;;;;;0.30;0.17;;;10.30;84.90;;;;;;5074919;28;20025;-72
2023/10/27 04:16:31;;;;;;;1.50;0.35;;;10.40;84.80;;;;;;5075258;28;20126;-72
2023/10/27 04:18:57;;;;;;;2.80;0.60;;;10.30;85.00;;;;;;5075291;28;20020;-72
2023/10/27 04:21:23;;;;;;;1.05;0.55;;;10.30;85.30;;;;;;5075429;28;20386;-73
2023/10/27 04:23:48;;;;;;;0.88;0.50;;;10.30;85.40;;;;;;5074095;28;20028;-72
2023/10/27 04:26:15;;;;;;;0.75;0.30;;;10.40;85.50;;;;;;5075041;28;20021;-72
2023/10/27 04:28:42;;;;;;;1.80;0.43;;;10.40;85.40;;;;;;5075020;28;20036;-71
2023/10/27 04:31:08;;;;;;;0.40;0.40;;;10.40;85.50;;;;;;5074509;28;20028;-72
2023/10/27 04:33:37;;;;;;;0.95;0.40;;;10.40;85.40;;;;;;5074662;28;20100;-72
2023/10/27 04:36:04;;;;;;;0.55;0.20;;;10.50;85.70;;;;;;5074727;28;20020;-72
2023/10/27 04:38:29;;;;;;;1.05;0.40;;;10.50;85.70;;;;;;5073450;28;20385;-73
2023/10/27 04:40:55;;;;;;;1.60;0.63;;;10.50;85.70;;;;;;5074689;28;20028;-74
2023/10/27 04:43:21;;;;;;;0.50;0.45;;;10.50;85.90;;;;;;5074920;28;20028;-72
2023/10/27 04:45:47;;;;;;;1.13;0.50;;;10.50;85.90;;;;;;5074559;28;20012;-73
2023/10/27 04:48:13;;;;;;;0.85;0.60;;;10.50;86.20;;;;;;5074865;28;20116;-72
2023/10/27 04:50:38;;;;;;;3.88;0.80;;;10.50;86.50;;;;;;5074551;28;20063;-71
2023/10/27 04:53:04;;;;;;;1.23;0.82;;;10.50;86.70;;;;;;5074796;28;20032;-72
2023/10/27 04:55:29;;;;;;;0.93;0.68;;;10.50;87.00;;;;;;5074636;28;20056;-71
2023/10/27 04:57:55;;;;;;;1.08;0.60;;;10.50;87.20;;;;;;5074374;28;20107;-72
2023/10/27 05:00:20;;;;;;;0.85;0.68;;;10.50;87.30;;;;;;5073884;28;20109;-71
2023/10/27 05:02:46;;;;;;;0.68;0.68;;;10.50;87.10;;;;;;5074268;28;20036;-72
2023/10/27 05:05:12;;;;;;;0.85;0.32;;;10.50;87.20;;;;;;5074680;28;20024;-72
2023/10/27 05:07:37;;;;;;;0.95;0.40;;;10.50;86.90;;;;;;5074456;28;20033;-75
2023/10/27 05:10:07;;;;;;;1.85;0.20;;;10.50;87.00;;;;;;5073988;28;20461;-72
2023/10/27 05:12:33;;;;;;;0.20;0.20;;;10.50;86.80;;;;;;5074182;28;20119;-70
2023/10/27 05:14:59;;;;;;;1.10;0.20;;;10.50;86.70;;;;;;5072777;28;20055;-74
2023/10/27 05:17:24;;;;;;;0.57;0.20;;;10.60;86.30;;;;;;5074024;28;20063;-74
2023/10/27 05:19:50;;;;;;;0.10;0.10;;;10.60;86.50;;;;;;5074152;28;20066;-84
2023/10/27 05:22:15;;;;;;;0.47;0.17;;;10.70;86.20;;;;;;5073578;28;20023;-84
2023/10/27 05:24:41;;;;;;;0.60;0.10;;;10.70;85.90;;;;;;5074669;28;20029;-80
2023/10/27 05:27:07;;;;;;;0.10;0.10;;;10.70;85.90;;;;;;5072565;28;20131;-75
2023/10/27 05:29:32;;;;;;;0.20;0.10;;;10.80;85.80;;;;;;5074061;28;20453;-74
2023/10/27 05:31:58;;;;;;;0.75;0.20;;;10.80;85.80;;;;;;5073781;28;20028;-73
2023/10/27 05:34:23;;;;;;;0.20;0.20;;;10.80;85.70;;;;;;5074391;28;20405;-82
2023/10/27 05:36:49;;;;;;;0.00;0.00;;;10.80;85.50;;;;;;5073792;28;20047;-83
2023/10/27 05:39:19;;;;;;;0.43;0.22;;;10.80;85.60;;;;;;5073736;28;20036;-84
2023/10/27 05:41:46;;;;;;;0.20;0.10;;;10.80;85.80;;;;;;5072568;28;20036;-83
2023/10/27 05:44:13;;;;;;;0.20;0.20;;;10.80;86.20;;;;;;5073823;28;20150;-79
2023/10/27 05:46:38;;;;;;;0.60;0.10;;;10.80;84.40;;;;;;5072087;28;20032;-83
2023/10/27 05:49:04;;;;;;;0.57;0.20;;;10.90;84.20;;;;;;5072365;28;20047;-82
2023/10/27 05:51:33;;;;;;;0.55;0.40;;;10.90;84.30;;;;;;5072106;28;20027;-81
2023/10/27 05:53:59;;;;;;;0.22;0.22;;;10.80;85.40;;;;;;5073736;28;20028;-83
2023/10/27 05:56:27;;;;;;;1.10;0.20;;;10.70;86.90;;;;;;5073449;28;20062;-79
2023/10/27 05:58:53;;;;;;;0.30;0.20;;;10.70;85.30;;;;;;5073464;28;20016;-78
2023/10/27 06:01:19;;;;;;;1.08;0.70;;;10.60;84.70;;;;;;5073581;28;20082;-82
2023/10/27 06:03:45;;;;;;;0.90;0.30;;;10.80;86.60;;;;;;5073313;28;20028;-82
2023/10/27 06:06:11;;;;;;;3.90;0.70;;;11.00;85.80;;;;;;5072829;28;20048;-81
2023/10/27 06:08:42;;;;;;;3.85;0.75;;;11.00;85.50;;;;;;5071987;28;20108;-83
2023/10/27 06:11:08;;;;;;;4.90;0.52;;;11.10;85.40;;;;;;5071781;28;20040;-77
2023/10/27 06:13:33;;;;;;;1.17;0.52;;;11.20;85.00;;;;;;5071856;28;20032;-77
2023/10/27 06:15:59;;;;;;;1.75;0.30;;;11.20;83.30;;;;;;5071908;28;20047;-76
2023/10/27 06:18:24;;;;;;;2.08;0.50;;;11.30;83.50;;;;;;5071142;28;20416;-74
2023/10/27 06:20:50;;;;;;;2.80;0.50;;;11.30;83.20;;;;;;5071749;28;20039;-74
2023/10/27 06:23:15;;;;;;;0.98;0.38;;;11.40;82.50;;;;;;5071857;28;20171;-76
2023/10/27 06:25:41;;;;;;;2.17;0.50;;;11.40;82.80;;;;;;5072965;28;20048;-76
2023/10/27 06:28:06;;;;;;;0.43;0.35;;;11.20;82.70;;;;;;5072914;28;20031;-80
2023/10/27 06:30:32;;;;;;;0.93;0.32;;;11.20;82.10;;;;;;5071611;28;20044;-75
2023/10/27 06:32:58;;;;;;;0.75;0.40;;;11.40;82.10;;;;;;5073087;28;20024;-76
2023/10/27 06:35:23;;;;;;;0.45;0.30;;;11.50;80.90;;;;;;5073303;28;20095;-76
2023/10/27 06:37:49;;;;;;;0.35;0.22;;;11.30;81.30;;;;;;5073177;28;20082;-75
2023/10/27 06:40:14;;;;;;;1.58;0.30;;;11.40;81.50;;;;;;5079066;28;20029;-83
2023/10/27 06:42:40;;;;;;;0.70;0.40;;;11.50;81.20;;;;;;5077072;28;20100;-81
2023/10/27 06:45:08;;;;;;;0.77;0.50;;;11.50;80.50;;;;;;5073656;28;20047;-83
2023/10/27 06:47:35;;;;;;;0.93;0.38;;;11.30;80.80;;;;;;5071852;28;20086;-84
2023/10/27 06:50:04;;;;;;;2.50;0.50;;;11.40;83.00;;;;;;5073301;28;20021;-82
2023/10/27 06:52:31;;;;;;;0.40;0.32;;;11.60;80.50;;;;;;5073238;28;20043;-83
2023/10/27 06:54:57;;;;;;;0.95;0.45;;;11.70;82.10;;;;;;5074309;28;20012;-84
2023/10/27 06:57:22;;;;;;;2.58;0.40;;;11.90;81.90;;;;;;5073257;28;20028;-76
2023/10/27 06:59:48;;;;;;;0.40;0.40;;;12.00;80.90;;;;;;5072698;28;20480;-76
2023/10/27 07:02:14;;;;;;;1.45;0.65;;;12.10;80.90;;;;;;5072777;28;20028;-77
2023/10/27 07:04:40;;;;;;;1.23;0.80;;;12.10;79.40;;;;;;5072837;28;20021;-73
2023/10/27 07:07:05;;;;;;;1.75;1.10;;;12.10;76.90;;;;;;5072664;28;20412;-76
2023/10/27 07:09:31;;;;;;;3.53;1.00;;;12.10;78.20;;;;;;5072737;28;20052;-77
2023/10/27 07:11:59;;;;;;;1.15;0.60;;;12.20;77.00;;;;;;5072532;28;20048;-79
2023/10/27 07:14:25;;;;;;;1.42;0.60;;;12.30;76.50;;;;;;5071803;28;20039;-84
2023/10/27 07:16:52;;;;;;;0.95;0.63;;;12.20;73.60;;;;;;5074067;28;20103;-72
2023/10/27 07:19:18;;;;;;;0.52;0.35;;;11.90;75.50;;;;;;5073545;28;20017;-71
2023/10/27 07:21:44;;;;;;;1.33;0.93;;;11.50;75.70;;;;;;5073370;28;20396;-83
2023/10/27 07:24:10;;;;;;;0.40;0.38;;;11.30;77.80;;;;;;5085122;28;20017;-85
2023/10/27 07:26:36;;;;;;;0.43;0.40;;;11.20;78.90;;;;;;5083490;28;20047;-82
2023/10/27 07:29:02;;;;;;;1.38;0.40;;;11.10;78.80;;;;;;5084897;28;20401;-82
2023/10/27 07:31:28;;;;;;;0.52;0.30;;;11.00;79.30;;;;;;5079967;28;20024;-76
2023/10/27 07:33:53;;;;;;;0.40;0.30;;;11.00;79.20;;;;;;5075242;28;20040;-84
2023/10/27 07:36:19;;;;;;;0.30;0.30;;;10.90;80.10;;;;;;5076947;28;20035;-85
2023/10/27 07:38:44;;;;;;;1.40;0.55;;;10.80;81.00;;;;;;5076025;28;20024;-83
2023/10/27 07:41:10;;;;;;;2.13;0.28;;;10.80;81.40;;;;;;5075586;28;20107;-83
2023/10/27 07:43:37;;;;;;;0.93;0.30;;;10.80;81.40;;;;;;5076722;28;20025;-85
2023/10/27 07:46:03;;;;;;;1.98;0.40;;;10.60;81.40;;;;;;5075524;28;20033;-83
2023/10/27 07:48:29;;;;;;;0.50;0.32;;;10.50;81.30;;;;;;5076908;28;20030;-82
2023/10/27 07:50:57;;;;;;;3.10;0.55;;;10.50;81.60;;;;;;5076854;28;20099;-84
2023/10/27 07:53:24;;;;;;;2.03;0.70;;;10.50;81.30;;;;;;5075476;28;20385;-81
2023/10/27 07:55:50;;;;;;;1.85;0.40;;;10.50;80.20;;;;;;5076850;28;20075;-82
2023/10/27 07:58:15;;;;;;;2.17;0.40;;;10.40;80.70;;;;;;5079663;28;20578;-84
2023/10/27 08:00:41;;;;;;;4.05;0.50;;;10.50;79.40;;;;;;5079877;28;20028;-82
2023/10/27 08:03:06;;;;;;;2.53;0.70;;;10.50;77.80;;;;;;5081969;28;20025;-85
2023/10/27 08:05:32;;;;;;;3.55;0.80;;;10.70;78.50;;;;;;5082165;28;20028;-86
2023/10/27 08:07:57;;;;;;;2.88;0.60;;;10.70;77.60;;;;;;5079056;28;20033;-83
2023/10/27 08:10:24;;;;;;;5.22;0.85;;;10.70;76.50;;;;;;5076284;28;20036;-76
2023/10/27 08:12:50;;;;;;;1.65;0.60;;;10.90;76.20;;;;;;5076950;28;20029;-82
2023/10/27 08:15:16;;;;;;;2.85;0.55;;;11.00;76.40;;;;;;5075301;28;20540;-76
2023/10/27 08:17:41;;;;;;;3.33;0.75;;;11.20;74.20;;;;;;5075807;28;20017;-78
2023/10/27 08:20:07;;;;;;;3.17;0.68;;;11.20;73.50;;;;;;5075679;28;20534;-80
2023/10/27 08:22:33;;;;;;;5.30;0.70;;;11.30;73.20;;;;;;5074406;28;20455;-78
2023/10/27 08:24:59;;;;;;;4.15;1.00;;;11.20;72.70;;;;;;5076776;28;20071;-80
2023/10/27 08:27:24;;;;;;;2.92;1.10;;;11.40;73.20;;;;;;5076628;28;20127;-76
2023/10/27 08:29:54;;;;;;;2.58;1.15;;;11.50;72.30;;;;;;5079760;28;20024;-84
2023/10/27 08:32:21;;;;;;;3.00;1.00;;;11.60;71.60;;;;;;5080190;28;20039;-77
2023/10/27 08:34:47;;;;;;;3.80;0.80;;;11.70;69.60;;;;;;5081212;28;20043;-82
2023/10/27 08:37:13;;;;;;;2.83;0.80;;;11.60;70.90;;;;;;5077790;28;20028;-76
2023/10/27 08:39:38;;;;;;;3.67;0.73;;;11.70;70.00;;;;;;5077086;28;20101;-71
2023/10/27 08:42:07;;;;;;;1.98;0.70;;;11.80;70.10;;;;;;5075515;28;20021;-71
2023/10/27 08:44:33;;;;;;;2.38;0.77;;;11.70;69.80;;;;;;5076384;28;20020;-71
2023/10/27 08:46:58;;;;;;;3.67;0.70;;;11.90;69.70;;;;;;5075612;28;20040;-75
2023/10/27 08:49:24;;;;;;;3.60;1.50;;;12.00;69.00;;;;;;5074979;28;20016;-73
2023/10/27 08:51:50;;;;;;;5.70;1.80;;;12.10;68.90;;;;;;5074990;28;20028;-73
2023/10/27 08:54:16;;;;;;;3.63;0.90;;;12.30;69.20;;;;;;5074496;28;20020;-72
2023/10/27 08:56:42;;;;;;;4.78;1.30;;;12.30;68.10;;;;;;5073539;28;20036;-70
2023/10/27 08:59:10;;;;;;;4.30;1.00;;;12.50;68.00;;;;;;5074843;28;20069;-75
2023/10/27 09:01:36;;;;;;;3.65;1.00;;;12.60;66.00;;;;;;5073487;28;20119;-77
2023/10/27 09:04:09;;;;;;;5.40;1.05;;;12.60;65.90;;;;;;5074670;28;20113;-76
2023/10/27 09:06:35;;;;;;;4.20;1.20;;;12.70;65.50;;;;;;5073381;28;20032;-74
2023/10/27 09:09:01;;;;;;;3.17;1.08;;;12.80;64.90;;;;;;5074890;28;20028;-74
2023/10/27 09:11:27;;;;;;;4.38;0.88;;;12.80;65.10;;;;;;5073081;28;20586;-74
2023/10/27 09:13:53;;;;;;;3.47;1.02;;;12.90;64.20;;;;;;5074639;28;20104;-76
2023/10/27 09:16:25;;;;;;;3.30;1.33;;;12.70;63.50;;;;;;5072906;28;20025;-74
2023/10/27 09:18:51;;;;;;;2.65;1.02;;;12.60;64.40;;;;;;5074148;28;20020;-74
2023/10/27 09:21:35;;;;;;;5.60;1.48;;;12.80;65.50;;;;;;5074346;28;20040;-73
2023/10/27 09:24:00;;;;;;;5.13;1.10;;;12.90;63.30;;;;;;5074408;28;20358;-74
2023/10/27 09:26:28;;;;;;;4.15;1.00;;;13.10;63.70;;;;;;5074238;28;20039;-73
2023/10/27 09:29:05;;;;;;;3.05;0.98;;;13.20;62.20;;;;;;5074053;28;20036;-73
2023/10/27 09:31:35;;;;;;;3.33;1.50;;;13.00;62.80;;;;;;5033999;28;20040;-74
2023/10/27 09:34:26;;;;;;;3.72;0.90;;;13.20;63.50;;;;;;5033469;28;20498;-73
2023/10/27 09:36:56;;;;;;;3.75;1.33;;;13.40;63.10;;;;;;5033432;28;20044;-73
2023/10/27 09:39:23;;;;;;;2.72;0.93;;;13.80;62.00;;;;;;5041241;28;20208;-73
2023/10/27 09:42:11;;;;;;;4.32;0.95;;;14.00;60.80;;;;;;5053586;28;20028;-74
2023/10/27 09:44:57;;;;;;;3.70;1.13;;;13.90;61.60;;;;;;5053806;28;20017;-72
2023/10/27 09:47:42;;;;;;;5.78;1.00;;;13.90;60.80;;;;;;5049155;28;20025;-72
2023/10/27 09:50:17;;;;;;;5.75;1.42;;;13.70;60.60;;;;;;5042358;28;20075;-73
2023/10/27 09:52:46;;;;;;;2.65;1.20;;;13.70;61.60;;;;;;5053668;28;20029;-73
2023/10/27 09:55:18;;;;;;;5.03;1.10;;;13.60;62.30;;;;;;5052587;28;20021;-72
2023/10/27 09:57:44;;;;;;;2.55;0.73;;;13.80;62.00;;;;;;5053630;28;20488;-72
2023/10/27 10:00:17;;;;;;;4.95;0.90;;;13.60;61.10;;;;;;5041894;28;20032;-73
2023/10/27 10:02:44;;;;;;;3.53;0.93;;;13.40;61.90;;;;;;5041585;28;20026;-72
2023/10/27 10:05:11;;;;;;;2.17;0.70;;;13.30;62.80;;;;;;5041932;28;20063;-73
2023/10/27 10:07:40;;;;;;;5.05;1.17;;;13.40;62.20;;;;;;5043519;28;20029;-72
2023/10/27 10:10:32;;;;;;;4.28;1.10;;;13.30;62.50;;;;;;5042300;28;20375;-72
2023/10/27 10:13:00;;;;;;;4.07;0.90;;;13.30;64.10;;;;;;5043068;28;20525;-71
2023/10/27 10:15:29;;;;;;;4.45;0.90;;;13.00;63.50;;;;;;5040627;28;20477;-72
2023/10/27 10:17:55;;;;;;;2.55;0.88;;;13.00;64.80;;;;;;5043146;28;20037;-72
2023/10/27 10:20:49;;;;;;;4.45;1.30;;;13.00;63.30;;;;;;5041359;28;20084;-73
2023/10/27 10:23:15;;;;;;;4.88;0.98;;;13.10;63.80;;;;;;5041171;28;20022;-74
2023/10/27 10:25:52;;;;;;;4.40;1.20;;;13.00;63.60;;;;;;5042244;28;20021;-71
2023/10/27 10:28:18;;;;;;;5.15;1.30;;;12.90;63.70;;;;;;5042382;28;20055;-72
2023/10/27 10:30:45;;;;;;;5.18;1.50;;;12.80;64.40;;;;;;5041723;28;20521;-76
2023/10/27 10:33:16;;;;;;;5.05;1.20;;;12.80;64.60;;;;;;5043254;28;20021;-78
2023/10/27 10:35:48;;;;;;;4.43;1.13;;;12.70;65.00;;;;;;5043396;28;20032;-75
2023/10/27 10:38:22;;;;;;;5.78;1.00;;;12.60;65.60;;;;;;5040316;28;20100;-80
2023/10/27 10:40:59;;;;;;;5.18;1.38;;;12.50;65.10;;;;;;5044132;28;20040;-78
2023/10/27 10:43:30;;;;;;;5.80;1.15;;;12.60;66.20;;;;;;5042661;28;20101;-78
2023/10/27 10:46:03;;;;;;;6.40;1.52;;;12.50;65.70;;;;;;5041183;28;20033;-73
2023/10/27 10:48:33;;;;;;;5.15;1.35;;;12.80;65.60;;;;;;5041127;28;20055;-73
2023/10/27 10:53:55;;;;;;;2.25;0.75;;;13.20;63.50;;;;;;5034834;28;20032;-72
2023/10/27 10:56:21;;;;;;;4.13;1.08;;;13.10;63.70;;;;;;5032306;28;20026;-72
2023/10/27 10:58:47;;;;;;;3.28;1.20;;;13.20;64.40;;;;;;5033398;28;20537;-76
2023/10/27 11:01:18;;;;;;;4.15;1.02;;;13.10;63.90;;;;;;5032737;28;20029;-72
2023/10/27 11:03:54;;;;;;;4.18;0.90;;;13.10;64.10;;;;;;5032645;28;20053;-71
2023/10/27 11:06:24;;;;;;;3.80;1.33;;;13.00;64.20;;;;;;5032569;28;20049;-72
2023/10/27 11:08:50;;;;;;;2.60;0.82;;;12.90;65.80;;;;;;5032691;28;20036;-73
2023/10/27 11:11:19;;;;;;;2.10;0.70;;;12.90;64.50;;;;;;5032573;28;20046;-72
2023/10/27 11:13:52;;;;;;;2.83;0.85;;;12.80;65.70;;;;;;5032635;28;20466;-71
2023/10/27 11:16:22;;;;;;;4.32;0.90;;;12.70;65.00;;;;;;5032732;28;20441;-73
2023/10/27 11:18:53;;;;;;;3.42;0.90;;;12.80;66.20;;;;;;5031724;28;20359;-75
2023/10/27 11:21:21;;;;;;;5.55;1.08;;;12.90;67.00;;;;;;5033087;28;20112;-74
2023/10/27 11:23:48;;;;;;;3.95;0.77;;;12.80;67.10;;;;;;5032789;28;20021;-74
2023/10/27 11:26:14;;;;;;;2.55;0.68;;;12.60;68.50;;;;;;5032788;28;20041;-73
2023/10/27 11:28:41;;;;;;;1.50;0.65;;;12.40;68.80;;;;;;5032698;28;20521;-75
2023/10/27 11:31:23;;;;;;;2.72;0.70;;;12.20;70.40;;;;;;5032440;28;20033;-73
2023/10/27 11:33:56;;;;;;;4.53;0.95;;;11.90;72.40;;;;;;5032573;28;20021;-71
2023/10/27 11:36:21;;;;;;;2.58;0.82;;;11.90;73.80;;;;;;5032473;28;20079;-72
2023/10/27 11:38:47;;;;;;;2.28;0.45;;;11.80;73.90;;;;;;5031419;28;20017;-72
2023/10/27 11:41:12;;;;;;;2.72;0.70;;;11.80;74.00;;;;;;5032587;28;20065;-74
2023/10/27 11:43:40;;;;;;;4.43;1.02;;;11.70;76.40;;;;;;5032660;28;20026;-72
2023/10/27 11:46:17;;;;;;;1.67;0.60;;;11.60;76.90;;;;;;5032246;28;20489;-73
2023/10/27 11:48:44;;;;;;;0.98;0.40;;;11.60;79.10;;;;;;5032425;28;20041;-73
2023/10/27 11:51:10;;;;;;;2.60;0.63;;;11.60;76.80;;;;;;5032602;28;20159;-72
2023/10/27 11:53:44;;;;;;;2.15;0.47;;;12.00;77.20;;;;;;5031897;28;20436;-74
2023/10/27 11:56:13;;;;;;;1.42;0.60;;;12.30;74.30;;;;;;5032170;28;20026;-73
2023/10/27 11:58:39;;;;;;;3.38;0.70;;;12.40;72.60;;;;;;5031775;28;20217;-73
2023/10/27 12:01:05;;;;;;;1.73;0.63;;;12.20;72.10;;;;;;5031055;28;20360;-73
2023/10/27 12:03:30;;;;;;;2.00;0.75;;;12.20;72.50;;;;;;5031029;28;20030;-72
2023/10/27 12:05:56;;;;;;;3.88;0.40;;;12.20;72.80;;;;;;5032101;28;20466;-72
2023/10/27 12:08:21;;;;;;;1.08;0.45;;;12.30;71.40;;;;;;5032267;28;20026;-72
2023/10/27 12:10:52;;;;;;;2.47;0.50;;;12.50;69.40;;;;;;5035560;28;20509;-74
2023/10/27 12:13:19;;;;;;;1.95;0.70;;;13.20;68.40;;;;;;5034561;28;20040;-74
2023/10/27 12:15:44;;;;;;;3.45;0.80;;;13.90;65.40;;;;;;5035773;28;20117;-72
2023/10/27 12:18:10;;;;;;;1.50;0.52;;;14.00;65.90;;;;;;5035866;28;20477;-75
2023/10/27 12:20:38;;;;;;;1.30;0.57;;;13.90;65.80;;;;;;5036410;28;20104;-77
2023/10/27 12:23:08;;;;;;;3.70;0.50;;;13.70;65.70;;;;;;5039509;28;20018;-75
2023/10/27 12:25:35;;;;;;;2.30;0.40;;;13.70;66.00;;;;;;5042912;28;20051;-72
2023/10/27 12:28:01;;;;;;;1.42;0.60;;;13.50;66.70;;;;;;5044628;28;20037;-71
2023/10/27 12:30:27;;;;;;;1.33;0.63;;;13.40;67.10;;;;;;5042640;28;20013;-72
2023/10/27 12:32:53;;;;;;;0.52;0.40;;;13.10;67.60;;;;;;5055434;28;20021;-73
2023/10/27 12:35:22;;;;;;;0.32;0.28;;;12.90;67.00;;;;;;5053967;28;20500;-73
2023/10/27 12:37:52;;;;;;;0.50;0.38;;;13.20;66.10;;;;;;5053844;28;20523;-79
2023/10/27 12:40:18;;;;;;;1.75;1.00;;;14.00;62.90;;;;;;5055202;28;20021;-77
2023/10/27 12:42:43;;;;;;;0.77;0.30;;;14.60;60.60;;;;;;5055234;28;20017;-72
2023/10/27 12:45:12;;;;;;;1.23;0.30;;;15.10;59.10;;;;;;5053424;28;20545;-71
2023/10/27 12:47:40;;;;;;;0.45;0.22;;;15.60;57.20;;;;;;5054765;28;20120;-75
2023/10/27 12:50:06;;;;;;;1.77;0.40;;;15.80;56.60;;;;;;5054856;28;20155;-71